createdAt,value
2019-05-07T00:02:14.367Z,7.73
2019-05-07T00:04:47.042Z,7.35
2019-05-07T00:07:19.723Z,7.08
2019-05-07T00:09:52.619Z,6.94
2019-05-07T00:12:25.501Z,9.77
2019-05-07T00:15:01.769Z,11.50
2019-05-07T00:17:33.099Z,10.31
2019-05-07T00:20:07.828Z,9.28
2019-05-07T00:22:41.929Z,8.51
2019-05-07T00:25:15.341Z,7.98
2019-05-07T00:27:48.020Z,7.57
2019-05-07T00:30:22.326Z,7.19
2019-05-07T00:32:55.164Z,6.87
2019-05-07T00:35:32.508Z,7.00
2019-05-07T00:38:07.696Z,10.24
2019-05-07T00:40:42.592Z,10.62
2019-05-07T00:43:22.379Z,9.45
2019-05-07T00:45:57.081Z,8.47
2019-05-07T00:48:32.631Z,7.84
2019-05-07T00:51:24.520Z,7.36
2019-05-07T00:53:57.304Z,6.93
2019-05-07T00:56:33.033Z,6.62
2019-05-07T00:59:05.023Z,8.19
2019-05-07T01:01:37.697Z,11.33
2019-05-07T01:04:11.985Z,11.11
2019-05-07T01:06:45.053Z,9.74
2019-05-07T01:09:17.682Z,8.80
2019-05-07T01:11:52.392Z,8.10
2019-05-07T01:14:25.291Z,7.58
2019-05-07T01:16:57.971Z,7.19
2019-05-07T01:19:32.687Z,6.80
2019-05-07T01:22:05.570Z,7.25
2019-05-07T01:24:38.271Z,10.42
2019-05-07T01:27:12.859Z,10.73
2019-05-07T01:29:45.253Z,9.48
2019-05-07T01:32:19.471Z,8.48
2019-05-07T01:34:53.636Z,7.84
2019-05-07T01:37:26.364Z,7.35
2019-05-07T01:39:58.990Z,6.97
2019-05-07T01:42:32.692Z,6.93
2019-05-07T01:45:09.215Z,9.98
2019-05-07T01:47:42.515Z,10.49
2019-05-07T01:50:15.698Z,9.23
2019-05-07T01:52:49.087Z,8.30
2019-05-07T01:55:22.591Z,7.71
2019-05-07T01:57:56.288Z,7.23
2019-05-07T02:00:28.969Z,6.86
2019-05-07T02:03:05.855Z,9.13
2019-05-07T02:05:49.999Z,9.87
2019-05-07T02:08:42.320Z,8.79
2019-05-07T02:11:32.723Z,7.91
2019-05-07T02:14:06.951Z,7.32
2019-05-07T02:16:41.872Z,6.89
2019-05-07T02:19:15.270Z,6.63
2019-05-07T02:21:49.789Z,9.20
2019-05-07T02:24:22.479Z,10.60
2019-05-07T02:26:55.101Z,9.48
2019-05-07T02:29:32.410Z,8.51
2019-05-07T02:32:05.177Z,7.81
2019-05-07T02:34:37.854Z,7.32
2019-05-07T02:37:12.723Z,6.93
2019-05-07T02:39:53.298Z,7.53
2019-05-07T02:42:25.979Z,10.81
2019-05-07T02:45:04.348Z,10.73
2019-05-07T02:47:37.534Z,9.44
2019-05-07T02:50:15.127Z,8.48
2019-05-07T02:52:53.360Z,7.81
2019-05-07T02:55:29.092Z,7.29
2019-05-07T02:58:03.597Z,6.89
2019-05-07T03:00:36.490Z,6.66
2019-05-07T03:03:09.163Z,9.35
2019-05-07T03:05:43.115Z,10.39
2019-05-07T03:08:16.263Z,9.23
2019-05-07T03:10:48.946Z,8.29
2019-05-07T03:13:23.769Z,7.63
2019-05-07T03:15:56.768Z,7.12
2019-05-07T03:18:33.124Z,7.60
2019-05-07T03:21:17.377Z,10.73
2019-05-07T03:23:53.852Z,10.63
2019-05-07T03:26:27.552Z,9.35
2019-05-07T03:29:03.909Z,8.39
2019-05-07T03:31:47.839Z,7.76
2019-05-07T03:34:28.212Z,7.19
2019-05-07T03:37:06.204Z,6.82
2019-05-07T03:39:36.743Z,7.50
2019-05-07T03:42:09.378Z,10.64
2019-05-07T03:44:44.484Z,10.64
2019-05-07T03:47:25.408Z,9.35
2019-05-07T03:49:58.219Z,8.32
2019-05-07T03:52:33.497Z,7.70
2019-05-07T03:55:07.264Z,7.21
2019-05-07T03:57:43.626Z,8.16
2019-05-07T04:00:16.667Z,11.29
2019-05-07T04:02:49.295Z,11.06
2019-05-07T04:05:23.173Z,9.83
2019-05-07T04:07:56.187Z,8.86
2019-05-07T04:10:28.868Z,8.20
2019-05-07T04:13:04.486Z,7.64
2019-05-07T04:15:35.869Z,7.26
2019-05-07T04:18:09.053Z,8.78
2019-05-07T04:20:43.489Z,10.70
2019-05-07T04:23:15.953Z,9.74
2019-05-07T04:25:55.755Z,8.85
2019-05-07T04:28:33.024Z,8.26
2019-05-07T04:31:04.477Z,7.82
2019-05-07T04:33:43.973Z,7.67
2019-05-07T04:36:18.746Z,10.60
2019-05-07T04:38:53.241Z,11.32
2019-05-07T04:41:25.706Z,10.21
2019-05-07T04:43:58.369Z,9.37
2019-05-07T04:46:33.444Z,8.75
2019-05-07T04:49:05.314Z,8.33
2019-05-07T04:51:49.306Z,8.06
2019-05-07T04:54:23.674Z,10.73
2019-05-07T04:56:56.304Z,11.50
2019-05-07T04:59:28.985Z,10.50
2019-05-07T05:02:06.678Z,9.83
2019-05-07T05:04:39.410Z,9.35
2019-05-07T05:07:13.385Z,9.00
2019-05-07T05:09:46.270Z,8.78
2019-05-07T05:12:19.548Z,8.58
2019-05-07T05:14:52.482Z,10.40
2019-05-07T05:17:25.314Z,11.89
2019-05-07T05:20:00.581Z,11.09
2019-05-07T05:22:48.540Z,10.42
2019-05-07T05:25:25.468Z,9.94
2019-05-07T05:27:58.150Z,9.66
2019-05-07T05:30:44.086Z,9.39
2019-05-07T05:33:16.663Z,9.17
2019-05-07T05:35:52.815Z,8.98
2019-05-07T05:38:26.782Z,8.80
2019-05-07T05:40:59.496Z,10.73
2019-05-07T05:43:44.168Z,12.89
2019-05-07T05:46:22.514Z,11.88
2019-05-07T05:48:54.397Z,11.08
2019-05-07T05:51:29.537Z,10.62
2019-05-07T05:54:09.799Z,10.27
2019-05-07T05:56:44.723Z,10.00
2019-05-07T05:59:27.914Z,9.83
2019-05-07T06:02:12.164Z,9.69
2019-05-07T06:04:49.079Z,9.52
2019-05-07T06:07:33.328Z,9.44
2019-05-07T06:10:13.069Z,9.30
2019-05-07T06:13:05.111Z,9.19
2019-05-07T06:15:57.287Z,9.06
2019-05-07T06:18:38.261Z,8.95
2019-05-07T06:21:15.811Z,8.86
2019-05-07T06:24:05.226Z,8.79
2019-05-07T06:26:38.574Z,10.70
2019-05-07T06:29:20.253Z,11.91
2019-05-07T06:32:02.749Z,11.09
2019-05-07T06:34:35.457Z,10.47
2019-05-07T06:37:08.135Z,10.08
2019-05-07T06:39:42.350Z,9.82
2019-05-07T06:42:35.197Z,9.66
2019-05-07T06:45:23.190Z,9.51
2019-05-07T06:47:56.475Z,9.38
2019-05-07T06:50:29.762Z,9.30
2019-05-07T06:53:02.825Z,9.21
2019-05-07T06:55:35.898Z,9.16
2019-05-07T06:58:12.251Z,9.13
2019-05-07T07:00:44.234Z,9.11
2019-05-07T07:03:22.300Z,9.13
2019-05-07T07:05:56.856Z,9.19
2019-05-07T07:08:33.835Z,9.30
2019-05-07T07:11:16.655Z,9.45
2019-05-07T07:13:51.983Z,9.65
2019-05-07T07:16:25.088Z,9.79
2019-05-07T07:18:57.708Z,9.87
2019-05-07T07:21:32.518Z,9.97
2019-05-07T07:24:04.605Z,10.03
2019-05-07T07:26:37.443Z,10.08
2019-05-07T07:29:12.742Z,10.12
2019-05-07T07:31:53.048Z,10.15
2019-05-07T07:34:26.644Z,10.24
2019-05-07T07:39:47.003Z,10.29
2019-05-07T07:42:19.622Z,10.33
2019-05-07T07:44:53.843Z,10.39
2019-05-07T07:47:26.520Z,10.47
2019-05-07T07:49:59.197Z,10.55
2019-05-07T07:52:32.432Z,10.56
2019-05-07T07:55:07.833Z,10.62
2019-05-07T07:57:46.144Z,10.71
2019-05-07T08:00:29.843Z,10.79
2019-05-07T08:03:02.873Z,10.83
2019-05-07T08:05:35.549Z,10.92
2019-05-07T08:08:08.839Z,11.01
2019-05-07T08:10:42.555Z,11.09
2019-05-07T08:13:15.531Z,11.15
2019-05-07T08:15:48.160Z,11.29
2019-05-07T08:18:22.234Z,11.45
2019-05-07T08:20:55.102Z,11.53
2019-05-07T08:23:27.734Z,11.58
2019-05-07T08:26:02.382Z,11.63
2019-05-07T08:28:34.701Z,11.77
2019-05-07T08:31:12.010Z,11.86
2019-05-07T08:33:49.282Z,11.93
2019-05-07T08:36:22.626Z,11.99
2019-05-07T08:38:56.557Z,12.02
2019-05-07T08:41:31.928Z,12.06
2019-05-07T08:44:22.336Z,12.07
2019-05-07T08:46:54.767Z,12.03
2019-05-07T08:49:36.875Z,12.05
2019-05-07T08:52:03.553Z,12.05
2019-05-07T08:54:36.639Z,12.10
2019-05-07T08:57:09.373Z,12.17
2019-05-07T08:59:57.619Z,12.27
2019-05-07T09:02:21.779Z,12.47
2019-05-07T09:04:53.963Z,12.58
2019-05-07T09:07:26.630Z,12.68
2019-05-07T09:09:59.269Z,12.74
2019-05-07T09:12:32.154Z,12.76
2019-05-07T09:15:08.366Z,12.74
2019-05-07T09:17:42.285Z,12.65
2019-05-07T09:20:16.488Z,12.59
2019-05-07T09:22:51.805Z,12.51
2019-05-07T09:25:25.120Z,12.45
2019-05-07T09:27:57.855Z,12.44
2019-05-07T09:30:32.685Z,12.41
2019-05-07T09:33:07.564Z,12.41
2019-05-07T09:35:52.790Z,12.51
2019-05-07T09:38:25.156Z,12.58
2019-05-07T09:40:57.905Z,12.69
2019-05-07T09:43:32.481Z,12.74
2019-05-07T09:46:05.398Z,12.74
2019-05-07T09:48:38.077Z,12.82
2019-05-07T09:51:12.256Z,12.92
2019-05-07T09:53:46.510Z,13.13
2019-05-07T09:56:19.198Z,13.30
2019-05-07T09:58:53.040Z,13.42
2019-05-07T10:01:26.082Z,13.55
2019-05-07T10:03:59.469Z,13.59
2019-05-07T10:06:32.238Z,13.55
2019-05-07T10:09:06.377Z,13.51
2019-05-07T10:11:40.665Z,13.46
2019-05-07T10:14:17.808Z,13.34
2019-05-07T10:16:56.029Z,13.21
2019-05-07T10:19:29.982Z,13.17
2019-05-07T10:22:02.668Z,13.20
2019-05-07T10:24:35.347Z,13.30
2019-05-07T10:27:09.358Z,13.46
2019-05-07T10:29:46.152Z,13.65
2019-05-07T10:32:19.273Z,13.87
2019-05-07T10:34:58.407Z,14.05
2019-05-07T10:37:33.283Z,14.27
2019-05-07T10:40:12.052Z,14.43
2019-05-07T10:42:46.320Z,14.63
2019-05-07T10:45:36.920Z,14.77
2019-05-07T10:48:13.850Z,14.94
2019-05-07T10:51:06.242Z,15.09
2019-05-07T10:53:42.400Z,15.33
2019-05-07T10:56:16.200Z,15.49
2019-05-07T10:58:49.494Z,15.63
2019-05-07T11:01:23.815Z,15.77
2019-05-07T11:03:56.596Z,15.84
2019-05-07T11:06:29.279Z,15.77
2019-05-07T11:09:02.674Z,15.58
2019-05-07T11:11:36.888Z,15.46
2019-05-07T11:14:09.567Z,15.35
2019-05-07T11:16:43.884Z,15.22
2019-05-07T11:19:18.890Z,15.06
2019-05-07T11:21:52.112Z,15.11
2019-05-07T11:24:25.200Z,15.29
2019-05-07T11:26:57.876Z,15.47
2019-05-07T11:29:32.740Z,15.71
2019-05-07T11:32:04.885Z,15.86
2019-05-07T11:34:38.013Z,16.05
2019-05-07T11:37:11.890Z,16.22
2019-05-07T11:39:44.903Z,16.34
2019-05-07T11:42:22.005Z,16.51
2019-05-07T11:44:55.232Z,16.73
2019-05-07T11:47:31.723Z,17.05
2019-05-07T11:50:14.719Z,17.41
2019-05-07T11:52:49.350Z,17.64
2019-05-07T11:55:22.639Z,17.82
2019-05-07T11:57:55.678Z,18.12
2019-05-07T12:00:32.150Z,18.52
2019-05-07T12:03:04.415Z,18.67
2019-05-07T12:05:37.352Z,18.87
2019-05-07T12:08:10.032Z,19.08
2019-05-07T12:10:42.970Z,19.29
2019-05-07T12:13:15.697Z,19.43
2019-05-07T12:15:48.982Z,19.58
2019-05-07T12:18:22.715Z,19.75
2019-05-07T12:20:55.777Z,19.91
2019-05-07T12:23:28.460Z,20.02
2019-05-07T12:26:02.541Z,20.19
2019-05-07T12:28:35.660Z,20.24
2019-05-07T12:31:12.181Z,20.34
2019-05-07T12:33:46.859Z,20.52
2019-05-07T12:36:20.150Z,20.71
2019-05-07T12:38:53.372Z,20.92
2019-05-07T12:41:34.108Z,21.06
2019-05-07T12:44:10.208Z,20.80
2019-05-07T12:46:42.793Z,20.38
2019-05-07T12:49:15.527Z,20.13
2019-05-07T12:51:49.748Z,20.23
2019-05-07T12:54:30.004Z,20.52
2019-05-07T12:57:02.677Z,20.95
2019-05-07T12:59:35.420Z,21.21
2019-05-07T13:02:21.794Z,21.46
2019-05-07T13:04:52.008Z,21.56
2019-05-07T13:07:23.837Z,21.42
2019-05-07T13:09:56.620Z,21.10
2019-05-07T13:12:29.401Z,20.78
2019-05-07T13:15:02.947Z,20.52
2019-05-07T13:17:36.405Z,20.38
2019-05-07T13:20:09.385Z,20.51
2019-05-07T13:22:42.818Z,20.67
2019-05-07T13:25:16.075Z,20.80
2019-05-07T13:27:49.360Z,21.03
2019-05-07T13:30:22.275Z,21.24
2019-05-07T13:32:57.487Z,21.21
2019-05-07T13:35:30.792Z,21.04
2019-05-07T13:38:04.632Z,20.74
2019-05-07T13:40:38.398Z,20.55
2019-05-07T13:43:13.318Z,20.41
2019-05-07T13:45:49.150Z,20.33
2019-05-07T13:48:25.548Z,20.27
2019-05-07T13:50:58.538Z,20.24
2019-05-07T13:53:32.236Z,20.19
2019-05-07T13:56:05.574Z,20.05
2019-05-07T13:58:38.215Z,20.05
2019-05-07T14:01:18.669Z,20.08
2019-05-07T14:03:51.352Z,20.27
2019-05-07T14:06:32.477Z,20.31
2019-05-07T14:09:09.043Z,20.17
2019-05-07T14:11:43.923Z,20.05
2019-05-07T14:14:16.610Z,19.81
2019-05-07T14:16:49.489Z,19.50
2019-05-07T14:19:22.632Z,19.15
2019-05-07T14:21:55.558Z,18.77
2019-05-07T14:24:28.247Z,18.48
2019-05-07T14:27:01.989Z,18.17
2019-05-07T14:29:35.241Z,17.90
2019-05-07T14:32:10.167Z,17.68
2019-05-07T14:34:44.340Z,17.48
2019-05-07T14:37:22.071Z,17.24
2019-05-07T14:39:55.017Z,16.97
2019-05-07T14:42:29.321Z,16.80
2019-05-07T14:45:01.961Z,16.61
2019-05-07T14:47:34.643Z,16.47
2019-05-07T14:50:08.649Z,16.31
2019-05-07T14:52:43.269Z,16.17
2019-05-07T14:55:17.386Z,16.12
2019-05-07T14:57:50.070Z,16.00
2019-05-07T15:00:24.500Z,15.85
2019-05-07T15:02:57.280Z,15.70
2019-05-07T15:05:29.952Z,15.56
2019-05-07T15:08:10.461Z,15.46
2019-05-07T15:10:38.433Z,15.36
2019-05-07T15:13:12.735Z,15.29
2019-05-07T15:15:45.681Z,15.23
2019-05-07T15:18:27.583Z,15.23
2019-05-07T15:21:01.903Z,15.46
2019-05-07T15:23:38.271Z,16.27
2019-05-07T15:26:12.818Z,17.28
2019-05-07T15:28:47.929Z,18.31
2019-05-07T15:31:22.087Z,19.05
2019-05-07T15:33:55.938Z,19.64
2019-05-07T15:36:28.620Z,20.31
2019-05-07T15:39:02.902Z,20.69
2019-05-07T15:41:37.358Z,21.34
2019-05-07T15:44:11.869Z,22.04
2019-05-07T15:46:44.308Z,22.55
2019-05-07T15:49:17.030Z,22.88
2019-05-07T15:51:53.016Z,23.18
2019-05-07T15:54:25.459Z,23.52
2019-05-07T15:57:01.790Z,23.81
2019-05-07T15:59:34.711Z,24.17
2019-05-07T16:02:08.931Z,24.54
2019-05-07T16:04:41.607Z,24.92
2019-05-07T16:07:14.388Z,25.20
2019-05-07T16:09:47.066Z,25.42
2019-05-07T16:12:22.687Z,25.60
2019-05-07T16:14:55.811Z,25.52
2019-05-07T16:17:38.831Z,24.95
2019-05-07T16:20:12.103Z,24.22
2019-05-07T16:22:47.721Z,23.46
2019-05-07T16:25:22.348Z,22.76
2019-05-07T16:27:54.770Z,22.08
2019-05-07T16:30:27.783Z,21.44
2019-05-07T16:33:02.152Z,20.82
2019-05-07T16:35:35.665Z,20.24
2019-05-07T16:38:08.349Z,19.67
2019-05-07T16:40:42.877Z,19.22
2019-05-07T16:43:15.453Z,18.67
2019-05-07T16:45:48.232Z,18.26
2019-05-07T16:48:23.092Z,17.89
2019-05-07T16:50:55.324Z,17.50
2019-05-07T16:53:30.245Z,17.14
2019-05-07T16:56:03.145Z,16.80
2019-05-07T16:58:52.362Z,16.47
2019-05-07T17:01:25.863Z,16.15
2019-05-07T17:04:00.129Z,15.84
2019-05-07T17:06:32.910Z,15.57
2019-05-07T17:09:14.289Z,15.30
2019-05-07T17:11:47.082Z,15.04
2019-05-07T17:14:27.074Z,14.80
2019-05-07T17:17:02.518Z,14.56
2019-05-07T17:19:36.069Z,14.35
2019-05-07T17:22:09.353Z,14.11
2019-05-07T17:24:42.813Z,13.93
2019-05-07T17:27:15.536Z,13.72
2019-05-07T17:29:48.169Z,13.52
2019-05-07T17:32:22.859Z,13.34
2019-05-07T17:34:55.113Z,13.16
2019-05-07T17:37:28.201Z,13.00
2019-05-07T17:40:03.095Z,12.82
2019-05-07T17:42:47.449Z,12.68
2019-05-07T17:45:16.531Z,12.55
2019-05-07T17:47:49.208Z,12.40
2019-05-07T17:50:23.584Z,12.26
2019-05-07T17:52:59.477Z,12.15
2019-05-07T17:55:33.118Z,11.99
2019-05-07T17:58:07.990Z,11.88
2019-05-07T18:00:42.121Z,11.75
2019-05-07T18:03:35.334Z,11.65
2019-05-07T18:06:09.826Z,11.50
2019-05-07T18:08:45.534Z,11.40
2019-05-07T18:11:25.825Z,11.29
2019-05-07T18:14:02.594Z,11.14
2019-05-07T18:16:49.782Z,11.04
2019-05-07T18:19:22.755Z,10.91
2019-05-07T18:21:55.400Z,10.80
2019-05-07T18:24:44.041Z,10.69
2019-05-07T18:27:27.096Z,10.59
2019-05-07T18:30:13.140Z,10.49
2019-05-07T18:33:11.437Z,10.39
2019-05-07T18:35:48.593Z,10.28
2019-05-07T18:38:38.792Z,10.21
2019-05-07T18:41:23.829Z,10.12
2019-05-07T18:44:12.195Z,10.03
2019-05-07T18:46:44.162Z,9.97
2019-05-07T18:49:20.589Z,9.86
2019-05-07T18:52:06.358Z,9.80
2019-05-07T18:54:47.883Z,9.69
2019-05-07T18:57:23.253Z,9.61
2019-05-07T19:02:52.641Z,9.38
2019-05-07T19:05:25.218Z,9.30
2019-05-07T19:08:07.516Z,9.17
2019-05-07T19:10:32.896Z,9.10
2019-05-07T19:13:06.029Z,8.98
2019-05-07T19:15:38.338Z,8.88
2019-05-07T19:18:12.029Z,8.75
2019-05-07T19:20:45.065Z,8.61
2019-05-07T19:23:17.573Z,8.52
2019-05-07T19:25:52.278Z,8.43
2019-05-07T19:28:24.715Z,8.32
2019-05-07T19:30:57.732Z,8.22
2019-05-07T19:33:32.430Z,8.10
2019-05-07T19:36:04.648Z,8.04
2019-05-07T19:38:37.484Z,7.95
2019-05-07T19:41:12.203Z,7.87
2019-05-07T19:43:44.632Z,7.80
2019-05-07T19:46:17.294Z,7.71
2019-05-07T19:48:51.931Z,7.63
2019-05-07T19:51:24.408Z,7.54
2019-05-07T19:53:58.172Z,7.49
2019-05-07T19:56:32.547Z,7.42
2019-05-07T19:59:05.757Z,7.31
2019-05-07T20:01:40.074Z,7.23
2019-05-07T20:04:21.538Z,7.16
2019-05-07T20:07:02.828Z,7.08
2019-05-07T20:09:39.023Z,7.00
2019-05-07T20:12:12.347Z,6.94
2019-05-07T20:14:45.142Z,6.90
2019-05-07T20:17:18.005Z,6.84
2019-05-07T20:19:52.678Z,6.79
2019-05-07T20:22:25.116Z,6.70
2019-05-07T20:25:12.384Z,6.63
2019-05-07T20:27:32.825Z,6.57
2019-05-07T20:30:07.562Z,6.53
2019-05-07T20:32:42.802Z,6.46
2019-05-07T20:35:16.128Z,6.38
2019-05-07T20:37:48.754Z,7.94
2019-05-07T20:40:22.675Z,11.32
2019-05-07T20:42:55.245Z,11.60
2019-05-07T20:45:27.921Z,10.49
2019-05-07T20:48:02.554Z,9.65
2019-05-07T20:50:34.917Z,9.09
2019-05-07T20:53:07.505Z,8.67
2019-05-07T20:55:39.870Z,8.32
2019-05-07T20:58:13.678Z,8.02
2019-05-07T21:00:46.977Z,7.78
2019-05-07T21:03:23.752Z,7.54
2019-05-07T21:05:56.846Z,7.31
2019-05-07T21:08:29.422Z,7.08
2019-05-07T21:11:02.644Z,6.87
2019-05-07T21:13:35.389Z,6.69
2019-05-07T21:16:08.057Z,6.52
2019-05-07T21:18:42.101Z,6.32
2019-05-07T21:21:14.695Z,6.17
2019-05-07T21:23:47.334Z,7.31
2019-05-07T21:26:22.293Z,10.69
2019-05-07T21:28:54.219Z,11.22
2019-05-07T21:31:26.895Z,9.96
2019-05-07T21:33:59.791Z,9.03
2019-05-07T21:36:32.521Z,8.39
2019-05-07T21:39:07.302Z,7.94
2019-05-07T21:41:42.666Z,7.54
2019-05-07T21:44:15.012Z,7.21
2019-05-07T21:46:47.678Z,6.90
2019-05-07T21:49:22.258Z,6.63
2019-05-07T21:51:54.727Z,6.37
2019-05-07T21:54:34.842Z,6.11
2019-05-07T21:57:16.426Z,7.61
2019-05-07T21:59:48.997Z,11.11
2019-05-07T22:02:23.221Z,11.25
2019-05-07T22:04:55.790Z,9.89
2019-05-07T22:07:28.469Z,8.89
2019-05-07T22:10:02.205Z,8.19
2019-05-07T22:12:35.155Z,7.67
2019-05-07T22:15:07.676Z,7.23
2019-05-07T22:17:44.136Z,6.90
2019-05-07T22:20:14.728Z,6.53
2019-05-07T22:22:47.471Z,6.24
2019-05-07T22:25:21.740Z,5.95
2019-05-07T22:27:55.944Z,7.91
2019-05-07T22:30:33.908Z,11.21
2019-05-07T22:33:08.779Z,11.18
2019-05-07T22:35:42.987Z,9.76
2019-05-07T22:38:33.385Z,8.61
2019-05-07T22:41:07.816Z,7.92
2019-05-07T22:43:42.390Z,7.39
2019-05-07T22:46:14.704Z,6.96
2019-05-07T22:48:47.494Z,6.59
2019-05-07T22:51:20.058Z,6.22
2019-05-07T22:53:52.321Z,5.89
2019-05-07T22:56:34.943Z,5.64
2019-05-07T22:59:00.818Z,7.14
2019-05-07T23:01:33.645Z,10.49
2019-05-07T23:04:06.354Z,10.71
2019-05-07T23:06:38.886Z,9.35
2019-05-07T23:09:12.781Z,8.30
2019-05-07T23:11:45.789Z,7.60
2019-05-07T23:14:22.664Z,7.07
2019-05-07T23:16:56.179Z,6.60
2019-05-07T23:19:28.732Z,6.24
2019-05-07T23:22:02.799Z,5.88
2019-05-07T23:24:35.649Z,5.51
2019-05-07T23:27:07.867Z,5.19
2019-05-07T23:29:41.805Z,7.54
2019-05-07T23:32:15.214Z,10.81
2019-05-07T23:34:47.890Z,10.70
2019-05-07T23:37:22.508Z,9.21
2019-05-07T23:39:56.433Z,8.12
2019-05-07T23:42:42.439Z,7.35
2019-05-07T23:45:15.413Z,6.72
2019-05-07T23:47:48.080Z,6.25
2019-05-07T23:50:20.826Z,5.86
2019-05-07T23:52:53.578Z,5.48
2019-05-07T23:55:26.217Z,5.30
2019-05-07T23:57:58.807Z,7.90
